Time;durP1;ratioP1;P1;durP2;ratioP2;P2;SDS_P1;SDS_P2;PMS_P1;PMS_P2;Temp;Humidity;BMP_temperature;BMP_pressure;BME280_temperature;BME280_humidity;BME280_pressure;Samples;Min_cycle;Max_cycle;Signal;HPM_P1;HPM_P2
2022/04/11 00:01:55;;;;;;;0.30;0.30;;;18.30;64.20;;;;;;5012986;28;20037;-68
2022/04/11 00:04:21;;;;;;;0.55;0.50;;;18.30;64.30;;;;;;5014044;28;20018;-68
2022/04/11 00:06:47;;;;;;;0.65;0.40;;;18.30;64.30;;;;;;5014128;28;20034;-68
2022/04/11 00:09:12;;;;;;;0.50;0.40;;;18.30;64.40;;;;;;5014015;28;20026;-68
2022/04/11 00:11:38;;;;;;;0.43;0.40;;;18.20;64.30;;;;;;5014024;28;20037;-68
2022/04/11 00:14:04;;;;;;;0.30;0.30;;;18.20;64.30;;;;;;5014229;28;20365;-68
2022/04/11 00:16:30;;;;;;;2.97;0.60;;;18.20;64.30;;;;;;5012869;28;20022;-68
2022/04/11 00:18:56;;;;;;;0.50;0.50;;;18.20;64.40;;;;;;5012456;28;20022;-68
2022/04/11 00:21:22;;;;;;;1.13;0.50;;;18.20;64.40;;;;;;5013855;28;20483;-68
2022/04/11 00:23:47;;;;;;;2.08;0.50;;;18.20;64.40;;;;;;5014126;28;20080;-68
2022/04/11 00:26:13;;;;;;;0.50;0.50;;;18.20;64.50;;;;;;5012727;28;20026;-68
2022/04/11 00:28:38;;;;;;;1.02;0.40;;;18.20;64.50;;;;;;5013742;28;20022;-68
2022/04/11 00:31:04;;;;;;;0.93;0.30;;;18.20;64.50;;;;;;5012523;28;20026;-68
2022/04/11 00:33:30;;;;;;;2.00;0.40;;;18.20;64.60;;;;;;5013464;28;20022;-68
2022/04/11 00:35:55;;;;;;;1.13;0.60;;;18.20;64.60;;;;;;5017948;28;20027;-68
2022/04/11 00:38:21;;;;;;;1.08;0.50;;;18.20;64.60;;;;;;5033449;28;20033;-68
2022/04/11 00:40:47;;;;;;;0.82;0.82;;;18.20;64.60;;;;;;5032006;28;20029;-68
2022/04/11 00:43:37;;;;;;;1.67;0.40;;;18.20;64.60;;;;;;5025070;28;20022;-68
2022/04/11 00:46:04;;;;;;;0.40;0.40;;;18.20;64.60;;;;;;5011964;28;20045;-68
2022/04/11 00:48:29;;;;;;;0.57;0.30;;;18.20;64.60;;;;;;5012165;28;20047;-68
2022/04/11 00:50:57;;;;;;;0.40;0.40;;;18.10;64.60;;;;;;5012143;28;20053;-69
2022/04/11 00:53:23;;;;;;;0.40;0.30;;;18.20;64.70;;;;;;5012353;28;20088;-69
2022/04/11 00:55:50;;;;;;;0.70;0.50;;;18.10;64.70;;;;;;5011847;28;20488;-69
2022/04/11 00:58:16;;;;;;;1.92;0.45;;;18.10;64.70;;;;;;5012046;28;20025;-69
2022/04/11 01:00:41;;;;;;;0.43;0.30;;;18.10;64.70;;;;;;5012141;28;20033;-69
2022/04/11 01:03:07;;;;;;;0.68;0.32;;;18.10;64.80;;;;;;5011779;28;20390;-69
2022/04/11 01:05:32;;;;;;;1.23;0.40;;;18.10;64.70;;;;;;5011733;28;20036;-69
2022/04/11 01:08:05;;;;;;;0.85;0.40;;;18.10;64.80;;;;;;5013166;28;20101;-69
2022/04/11 01:10:31;;;;;;;;;;;18.10;64.80;;;;;;5012196;28;20543;-68
2022/04/11 01:12:57;;;;;;;0.80;0.40;;;18.00;64.90;;;;;;5012966;28;19910;-68
2022/04/11 01:15:22;;;;;;;0.60;0.60;;;18.00;65.20;;;;;;5011852;28;20034;-68
2022/04/11 01:17:48;;;;;;;0.47;0.47;;;18.00;65.10;;;;;;5012631;28;20392;-68
2022/04/11 01:20:16;;;;;;;0.30;0.30;;;18.00;65.00;;;;;;5012915;28;20551;-68
2022/04/11 01:22:41;;;;;;;0.50;0.30;;;18.00;65.00;;;;;;5011747;28;20026;-68
2022/04/11 01:25:08;;;;;;;0.73;0.50;;;18.00;65.10;;;;;;5012751;28;20105;-68
2022/04/11 01:27:33;;;;;;;1.48;0.40;;;18.10;65.10;;;;;;5011461;28;20045;-68
2022/04/11 01:29:59;;;;;;;1.10;0.38;;;18.00;65.00;;;;;;5011545;28;20018;-68
2022/04/11 01:32:25;;;;;;;1.10;0.52;;;18.10;65.10;;;;;;5010920;28;20026;-68
2022/04/11 01:34:50;;;;;;;0.52;0.30;;;18.10;65.10;;;;;;5013196;28;20117;-68
2022/04/11 01:37:16;;;;;;;0.52;0.30;;;18.00;65.00;;;;;;5029103;28;20052;-69
2022/04/11 01:39:42;;;;;;;0.60;0.25;;;18.00;65.10;;;;;;5032336;28;20087;-68
2022/04/11 01:42:07;;;;;;;1.38;0.40;;;18.00;65.10;;;;;;5032333;28;20034;-68
2022/04/11 01:44:33;;;;;;;0.40;0.40;;;18.10;65.20;;;;;;5013416;28;20034;-68
2022/04/11 01:46:59;;;;;;;1.40;0.40;;;18.10;65.20;;;;;;5012101;28;20046;-68
2022/04/11 01:49:24;;;;;;;0.32;0.32;;;18.00;65.20;;;;;;5012693;28;20112;-68
2022/04/11 01:51:51;;;;;;;0.65;0.40;;;18.00;65.20;;;;;;5011355;28;20100;-68
2022/04/11 01:54:17;;;;;;;3.72;0.55;;;18.00;65.20;;;;;;5011393;28;20033;-68
2022/04/11 01:56:42;;;;;;;0.68;0.68;;;18.00;65.30;;;;;;5012407;28;20026;-68
2022/04/11 01:59:08;;;;;;;0.40;0.35;;;18.00;65.30;;;;;;5012359;28;20030;-68
2022/04/11 02:01:34;;;;;;;0.65;0.40;;;18.00;65.40;;;;;;5012059;28;20026;-68
2022/04/11 02:03:59;;;;;;;0.43;0.40;;;18.00;65.40;;;;;;5012430;28;20489;-68
2022/04/11 02:06:25;;;;;;;0.47;0.35;;;18.00;65.40;;;;;;5012318;28;20030;-68
2022/04/11 02:08:50;;;;;;;0.63;0.32;;;18.00;65.50;;;;;;5011131;28;20026;-68
2022/04/11 02:11:16;;;;;;;0.25;0.25;;;18.00;65.50;;;;;;5012371;28;20018;-68
2022/04/11 02:13:42;;;;;;;0.30;0.30;;;18.00;65.60;;;;;;5011283;28;20033;-68
2022/04/11 02:16:07;;;;;;;0.43;0.35;;;18.00;65.50;;;;;;5012028;28;20096;-68
2022/04/11 02:18:33;;;;;;;0.32;0.32;;;18.00;65.50;;;;;;5012850;28;20030;-68
2022/04/11 02:20:58;;;;;;;0.52;0.52;;;18.00;65.50;;;;;;5011992;28;20101;-68
2022/04/11 02:23:24;;;;;;;0.32;0.32;;;18.00;65.60;;;;;;5012080;28;20049;-68
2022/04/11 02:25:50;;;;;;;0.75;0.60;;;18.00;65.60;;;;;;5011131;28;20014;-68
2022/04/11 02:28:15;;;;;;;0.55;0.40;;;18.00;65.70;;;;;;5012386;28;20403;-68
2022/04/11 02:30:41;;;;;;;1.95;0.50;;;18.00;65.70;;;;;;5011039;28;20556;-68
2022/04/11 02:33:07;;;;;;;0.30;0.30;;;18.00;65.70;;;;;;5012104;28;20121;-68
2022/04/11 02:35:33;;;;;;;0.75;0.32;;;18.00;65.70;;;;;;5014722;28;20928;-68
2022/04/11 02:37:59;;;;;;;0.50;0.50;;;18.00;65.80;;;;;;5031684;28;20112;-68
2022/04/11 02:40:25;;;;;;;0.75;0.40;;;17.90;65.70;;;;;;5030611;28;20017;-68
2022/04/11 02:42:50;;;;;;;0.77;0.40;;;17.90;65.70;;;;;;5026720;28;20026;-68
2022/04/11 02:45:16;;;;;;;0.80;0.30;;;17.90;65.70;;;;;;5012600;28;20399;-68
2022/04/11 02:47:42;;;;;;;1.48;0.40;;;18.00;65.90;;;;;;5015662;28;20049;-68
2022/04/11 02:50:08;;;;;;;0.32;0.30;;;18.00;65.90;;;;;;5015538;28;20026;-68
2022/04/11 02:52:34;;;;;;;1.08;0.68;;;17.90;66.80;;;;;;5014519;28;20113;-68
2022/04/11 02:55:00;;;;;;;0.60;0.60;;;17.90;65.80;;;;;;5015505;28;20148;-68
2022/04/11 02:57:26;;;;;;;0.65;0.60;;;17.90;66.90;;;;;;5014417;28;20030;-68
2022/04/11 02:59:52;;;;;;;0.85;0.35;;;17.90;65.90;;;;;;5014151;28;20026;-68
2022/04/11 03:02:18;;;;;;;0.80;0.40;;;17.90;66.00;;;;;;5015454;28;20076;-68
2022/04/11 03:04:43;;;;;;;0.30;0.30;;;17.90;66.00;;;;;;5014174;28;20080;-68
2022/04/11 03:07:09;;;;;;;0.50;0.50;;;17.90;65.90;;;;;;5015151;28;20057;-68
2022/04/11 03:09:34;;;;;;;0.47;0.47;;;17.90;66.00;;;;;;5015254;28;20033;-68
2022/04/11 03:12:00;;;;;;;0.32;0.32;;;17.90;66.00;;;;;;5015117;28;20029;-68
2022/04/11 03:14:26;;;;;;;1.75;0.40;;;17.90;66.00;;;;;;5013888;28;20017;-68
2022/04/11 03:16:52;;;;;;;0.85;0.55;;;17.90;66.10;;;;;;5013900;28;20037;-68
2022/04/11 03:19:17;;;;;;;0.45;0.32;;;17.90;66.20;;;;;;5013724;28;20381;-68
2022/04/11 03:21:43;;;;;;;0.35;0.35;;;17.90;66.20;;;;;;5013830;28;20022;-68
2022/04/11 03:24:09;;;;;;;0.40;0.35;;;17.90;66.20;;;;;;5013598;28;20026;-68
2022/04/11 03:26:35;;;;;;;0.40;0.40;;;17.90;66.20;;;;;;5015038;28;20036;-68
2022/04/11 03:29:00;;;;;;;0.60;0.40;;;17.90;66.30;;;;;;5013436;28;20018;-68
2022/04/11 03:31:26;;;;;;;0.52;0.40;;;17.90;66.20;;;;;;5013708;28;20030;-68
2022/04/11 03:33:52;;;;;;;0.50;0.40;;;17.90;66.30;;;;;;5014798;28;20022;-68
2022/04/11 03:36:18;;;;;;;0.50;0.30;;;17.80;66.30;;;;;;5023253;28;20021;-68
2022/04/11 03:38:44;;;;;;;0.52;0.50;;;17.80;66.30;;;;;;5034607;28;20307;-68
2022/04/11 03:41:09;;;;;;;0.30;0.30;;;17.80;66.30;;;;;;5033136;28;20032;-68
2022/04/11 03:43:35;;;;;;;1.65;0.38;;;17.80;67.40;;;;;;5021836;28;20026;-68
2022/04/11 03:46:01;;;;;;;1.52;0.40;;;17.80;66.40;;;;;;5014266;28;20041;-68
2022/04/11 03:48:26;;;;;;;0.35;0.20;;;17.80;66.40;;;;;;5013430;28;20048;-68
2022/04/11 03:50:53;;;;;;;1.15;0.60;;;17.80;66.50;;;;;;5013271;28;20378;-68
2022/04/11 03:53:18;;;;;;;0.50;0.50;;;17.80;66.40;;;;;;5013336;28;20484;-68
2022/04/11 03:55:44;;;;;;;0.50;0.35;;;17.80;66.50;;;;;;5014047;28;20030;-68
2022/04/11 03:58:10;;;;;;;1.13;0.40;;;17.80;66.50;;;;;;5014126;28;20030;-68
2022/04/11 04:00:36;;;;;;;0.50;0.40;;;17.80;66.50;;;;;;5013141;28;20026;-68
2022/04/11 04:03:10;;;;;;;1.48;0.47;;;17.80;66.50;;;;;;5013052;28;20033;-68
2022/04/11 04:05:42;;;;;;;0.35;0.30;;;17.80;66.60;;;;;;5013126;28;20025;-68
2022/04/11 04:08:09;;;;;;;0.98;0.38;;;17.80;66.60;;;;;;5014139;28;20030;-68
2022/04/11 04:10:34;;;;;;;0.45;0.32;;;17.80;66.60;;;;;;5013004;28;20025;-68
2022/04/11 04:13:00;;;;;;;0.40;0.40;;;17.70;66.60;;;;;;5013618;28;20030;-68
2022/04/11 04:15:26;;;;;;;0.50;0.47;;;17.70;66.60;;;;;;5014188;28;20026;-68
2022/04/11 04:17:52;;;;;;;1.00;0.45;;;17.70;66.60;;;;;;5012893;28;20460;-68
2022/04/11 04:20:18;;;;;;;0.47;0.40;;;17.70;66.60;;;;;;5012802;28;20026;-68
2022/04/11 04:22:43;;;;;;;0.60;0.45;;;17.70;66.70;;;;;;5013910;28;20373;-68
2022/04/11 04:25:09;;;;;;;0.40;0.40;;;17.70;66.70;;;;;;5012524;28;20033;-68
2022/04/11 04:27:35;;;;;;;1.95;0.47;;;17.70;66.70;;;;;;5013536;28;20030;-68
2022/04/11 04:30:01;;;;;;;0.60;0.50;;;17.70;66.70;;;;;;5012714;28;20030;-68
2022/04/11 04:32:27;;;;;;;0.47;0.47;;;17.70;66.70;;;;;;5013679;28;20100;-68
2022/04/11 04:34:53;;;;;;;0.50;0.40;;;17.70;66.70;;;;;;5013572;28;20018;-68
2022/04/11 04:37:18;;;;;;;0.43;0.40;;;17.70;66.70;;;;;;5030456;28;20040;-68
2022/04/11 04:39:44;;;;;;;0.68;0.40;;;17.70;66.70;;;;;;5033403;28;20025;-68
2022/04/11 04:42:09;;;;;;;0.35;0.35;;;17.70;66.70;;;;;;5031642;28;20032;-68
2022/04/11 04:44:42;;;;;;;0.30;0.30;;;17.70;66.70;;;;;;5013644;28;20032;-68
2022/04/11 04:47:10;;;;;;;1.05;0.55;;;17.70;66.80;;;;;;5013088;28;20050;-68
2022/04/11 04:49:35;;;;;;;0.40;0.40;;;17.70;66.80;;;;;;5012401;28;20381;-68
2022/04/11 04:52:01;;;;;;;0.40;0.40;;;17.70;66.80;;;;;;5013479;28;20076;-68
2022/04/11 04:54:27;;;;;;;0.88;0.50;;;17.70;66.80;;;;;;5011736;28;20029;-68
2022/04/11 04:56:53;;;;;;;0.50;0.40;;;17.70;66.80;;;;;;5012087;28;20030;-68
2022/04/11 04:59:18;;;;;;;0.70;0.47;;;17.70;66.90;;;;;;5013122;28;20044;-68
2022/04/11 05:01:44;;;;;;;0.45;0.45;;;17.70;66.90;;;;;;5013183;28;20507;-69
2022/04/11 05:04:10;;;;;;;0.85;0.57;;;17.70;66.90;;;;;;5013097;28;20022;-68
2022/04/11 05:06:35;;;;;;;0.47;0.40;;;17.70;67.00;;;;;;5011620;28;20063;-68
2022/04/11 05:09:01;;;;;;;0.20;0.20;;;17.70;67.00;;;;;;5012559;28;20090;-68
2022/04/11 05:11:26;;;;;;;0.52;0.40;;;17.70;67.00;;;;;;5012860;28;20026;-69
2022/04/11 05:13:52;;;;;;;0.40;0.40;;;17.70;67.00;;;;;;5013065;28;20362;-68
2022/04/11 05:16:18;;;;;;;0.93;0.40;;;17.70;67.10;;;;;;5011614;28;20121;-68
2022/04/11 05:18:45;;;;;;;0.45;0.32;;;17.70;67.10;;;;;;5011689;28;20018;-68
2022/04/11 05:21:10;;;;;;;1.17;0.40;;;17.60;67.00;;;;;;5011545;28;20104;-69
2022/04/11 05:23:36;;;;;;;0.43;0.43;;;17.60;67.10;;;;;;5012582;28;20069;-68
2022/04/11 05:26:05;;;;;;;0.55;0.40;;;17.60;67.00;;;;;;5011912;28;20029;-68
2022/04/11 05:28:34;;;;;;;0.30;0.30;;;17.60;67.10;;;;;;5011521;28;20030;-68
2022/04/11 05:31:00;;;;;;;0.30;0.30;;;17.60;67.00;;;;;;5012712;28;20030;-68
2022/04/11 05:33:25;;;;;;;0.30;0.30;;;17.60;67.10;;;;;;5012576;28;20552;-68
2022/04/11 05:35:51;;;;;;;0.70;0.40;;;17.60;67.10;;;;;;5017771;28;20503;-68
2022/04/11 05:38:19;;;;;;;0.43;0.40;;;17.60;67.10;;;;;;5030792;28;20025;-68
2022/04/11 05:40:45;;;;;;;0.40;0.40;;;17.60;67.10;;;;;;5032478;28;20056;-68
2022/04/11 05:43:13;;;;;;;0.63;0.63;;;17.60;67.10;;;;;;5023310;28;20021;-68
2022/04/11 05:45:39;;;;;;;0.25;0.25;;;17.60;67.20;;;;;;5011097;28;20070;-68
2022/04/11 05:48:06;;;;;;;0.40;0.30;;;17.60;67.20;;;;;;5011467;28;20054;-68
2022/04/11 05:50:31;;;;;;;0.65;0.30;;;17.60;67.20;;;;;;5012762;28;20022;-68
2022/04/11 05:52:57;;;;;;;1.83;0.50;;;17.60;67.20;;;;;;5012273;28;20045;-69
2022/04/11 05:55:23;;;;;;;0.70;0.50;;;17.60;67.20;;;;;;5012600;28;20034;-68
2022/04/11 05:57:49;;;;;;;0.47;0.47;;;17.60;67.20;;;;;;5012494;28;20032;-68
2022/04/11 06:00:15;;;;;;;1.20;0.40;;;17.60;67.20;;;;;;5012312;28;20014;-68
2022/04/11 06:02:41;;;;;;;0.77;0.47;;;17.60;67.30;;;;;;5012395;28;20033;-68
2022/04/11 06:05:08;;;;;;;0.75;0.30;;;17.60;68.30;;;;;;5012689;28;20026;-68
2022/04/11 06:07:34;;;;;;;0.30;0.30;;;17.60;67.30;;;;;;5012263;28;20037;-68
2022/04/11 06:09:59;;;;;;;0.40;0.40;;;17.50;67.20;;;;;;5012437;28;20026;-68
2022/04/11 06:12:26;;;;;;;0.65;0.30;;;17.60;67.30;;;;;;5011149;28;20041;-68
2022/04/11 06:14:55;;;;;;;0.30;0.30;;;17.50;67.30;;;;;;5011382;28;20022;-68
2022/04/11 06:17:24;;;;;;;0.47;0.40;;;17.50;67.40;;;;;;5012287;28;20026;-68
2022/04/11 06:19:53;;;;;;;0.38;0.20;;;17.50;67.40;;;;;;5014172;28;20025;-68
2022/04/11 06:22:19;;;;;;;0.82;0.40;;;17.50;67.40;;;;;;5014699;28;20029;-68
2022/04/11 06:24:45;;;;;;;0.30;0.30;;;17.50;67.50;;;;;;5016241;28;20029;-68
2022/04/11 06:27:11;;;;;;;0.40;0.40;;;17.50;67.40;;;;;;5015041;28;20053;-68
2022/04/11 06:29:36;;;;;;;0.35;0.35;;;17.50;67.40;;;;;;5014896;28;20468;-68
2022/04/11 06:32:04;;;;;;;0.25;0.25;;;17.50;67.40;;;;;;5016020;28;20033;-68
2022/04/11 06:34:34;;;;;;;0.25;0.25;;;17.50;67.50;;;;;;5028392;28;20030;-68
2022/04/11 06:37:00;;;;;;;0.73;0.30;;;17.50;67.50;;;;;;5033303;28;20522;-68
2022/04/11 06:39:27;;;;;;;1.30;0.40;;;17.50;67.50;;;;;;5033831;28;20017;-68
2022/04/11 06:41:53;;;;;;;1.48;0.60;;;17.50;67.50;;;;;;5035176;28;20029;-68
2022/04/11 06:44:19;;;;;;;0.30;0.30;;;17.50;67.50;;;;;;5016652;28;20026;-68
2022/04/11 06:46:45;;;;;;;0.38;0.38;;;17.50;67.50;;;;;;5015229;28;20050;-68
2022/04/11 06:49:10;;;;;;;1.65;0.43;;;17.50;67.50;;;;;;5013971;28;20038;-68
2022/04/11 06:51:38;;;;;;;0.90;0.40;;;17.50;67.50;;;;;;5013895;28;20080;-68
2022/04/11 06:54:05;;;;;;;0.30;0.30;;;17.50;67.50;;;;;;5013952;28;20118;-68
2022/04/11 06:56:32;;;;;;;1.02;0.52;;;17.50;67.50;;;;;;5014854;28;20061;-68
2022/04/11 06:58:59;;;;;;;1.95;0.77;;;17.50;67.00;;;;;;5013775;28;20176;-68
2022/04/11 07:01:25;;;;;;;1.20;0.70;;;17.30;65.80;;;;;;5015180;28;20053;-68
2022/04/11 07:03:51;;;;;;;3.63;0.90;;;17.20;66.40;;;;;;5015633;28;20050;-68
2022/04/11 07:06:17;;;;;;;1.48;1.00;;;17.00;64.90;;;;;;5017883;28;20014;-68
2022/04/11 07:08:43;;;;;;;3.20;1.20;;;16.90;64.50;;;;;;5035104;28;20377;-68
2022/04/11 07:11:08;;;;;;;1.52;1.13;;;16.90;64.50;;;;;;5035068;28;20040;-68
2022/04/11 07:13:34;;;;;;;2.42;1.15;;;16.80;65.00;;;;;;5033450;28;20033;-68
2022/04/11 07:16:00;;;;;;;2.03;1.30;;;16.70;63.80;;;;;;5033867;28;20021;-68
2022/04/11 07:18:27;;;;;;;1.45;1.17;;;16.60;63.50;;;;;;5033617;28;20032;-69
2022/04/11 07:20:55;;;;;;;4.07;1.30;;;16.60;63.40;;;;;;5034463;28;20029;-68
2022/04/11 07:23:21;;;;;;;3.42;1.30;;;16.50;62.90;;;;;;5033526;28;20507;-68
2022/04/11 07:25:48;;;;;;;2.80;1.05;;;16.50;62.90;;;;;;5017096;28;20025;-68
2022/04/11 07:28:14;;;;;;;2.95;1.60;;;16.40;62.50;;;;;;5033633;28;20388;-68
2022/04/11 07:30:40;;;;;;;3.70;1.40;;;16.40;62.40;;;;;;5032856;28;20021;-69
2022/04/11 07:33:06;;;;;;;2.42;1.88;;;16.40;62.30;;;;;;5033431;28;20030;-68
2022/04/11 07:35:32;;;;;;;1.40;1.30;;;16.40;62.00;;;;;;5032930;28;20396;-67
2022/04/11 07:37:57;;;;;;;2.75;1.10;;;16.30;61.80;;;;;;5034581;28;20033;-68
2022/04/11 07:40:26;;;;;;;2.67;1.35;;;16.30;61.60;;;;;;5034165;28;20014;-68
2022/04/11 07:42:54;;;;;;;1.75;1.13;;;16.30;61.50;;;;;;5028083;28;20110;-67
2022/04/11 07:45:23;;;;;;;2.47;1.20;;;16.20;61.40;;;;;;5013364;28;20021;-67
2022/04/11 07:47:49;;;;;;;2.72;1.25;;;16.20;61.00;;;;;;5013339;28;20057;-68
2022/04/11 07:50:15;;;;;;;4.78;1.50;;;16.20;60.80;;;;;;5014432;28;20102;-68
2022/04/11 07:52:42;;;;;;;4.53;1.48;;;16.10;60.60;;;;;;5013341;28;20065;-68
2022/04/11 07:55:08;;;;;;;2.10;1.35;;;16.10;60.50;;;;;;5013227;28;20048;-68
2022/04/11 07:57:34;;;;;;;2.38;1.10;;;16.10;60.60;;;;;;5021859;28;20083;-69
2022/04/11 07:59:59;;;;;;;2.05;1.38;;;16.10;60.50;;;;;;5033070;28;20025;-69
2022/04/11 08:02:26;;;;;;;3.33;1.50;;;16.10;60.10;;;;;;5032724;28;20049;-69
2022/04/11 08:04:54;;;;;;;3.10;1.33;;;16.00;60.00;;;;;;5032682;28;20027;-68
2022/04/11 08:07:20;;;;;;;7.00;1.55;;;16.00;60.00;;;;;;5034230;28;20036;-70
2022/04/11 08:09:46;;;;;;;3.58;1.23;;;16.00;59.90;;;;;;5032731;28;20140;-69
2022/04/11 08:12:12;;;;;;;2.90;1.40;;;16.00;59.90;;;;;;5033844;28;20125;-70
2022/04/11 08:14:37;;;;;;;1.63;1.02;;;16.00;59.80;;;;;;5031370;28;20040;-71
2022/04/11 08:17:03;;;;;;;2.90;1.45;;;16.00;59.60;;;;;;5032540;28;20108;-71
2022/04/11 08:19:29;;;;;;;3.13;1.40;;;16.00;59.50;;;;;;5030928;28;20115;-71
2022/04/11 08:21:56;;;;;;;2.65;1.30;;;15.90;59.50;;;;;;5031978;28;20026;-71
2022/04/11 08:24:21;;;;;;;2.65;1.33;;;15.90;59.40;;;;;;5032957;28;20101;-71
2022/04/11 08:26:47;;;;;;;2.90;1.30;;;15.90;59.40;;;;;;5033405;28;20595;-71
2022/04/11 08:29:12;;;;;;;3.58;1.45;;;15.90;59.30;;;;;;5032985;28;20024;-70
2022/04/11 08:31:39;;;;;;;4.80;1.60;;;15.90;59.30;;;;;;5032128;28;20053;-70
2022/04/11 08:34:04;;;;;;;4.22;1.60;;;15.90;59.30;;;;;;5033369;28;20021;-69
2022/04/11 08:36:30;;;;;;;6.88;2.13;;;15.90;59.20;;;;;;5031891;28;20081;-73
2022/04/11 08:38:56;;;;;;;3.47;1.63;;;15.90;59.20;;;;;;5032230;28;20025;-68
2022/04/11 08:41:22;;;;;;;3.33;1.60;;;15.90;59.20;;;;;;5032909;28;20021;-67
2022/04/11 08:43:47;;;;;;;8.10;1.70;;;15.90;59.20;;;;;;5018428;28;20493;-70
2022/04/11 08:46:16;;;;;;;6.78;1.50;;;15.90;59.10;;;;;;5013252;28;20049;-71
2022/04/11 08:48:42;;;;;;;5.60;1.85;;;15.90;59.00;;;;;;5012197;28;20025;-72
2022/04/11 08:51:08;;;;;;;4.43;1.45;;;15.90;59.10;;;;;;5013424;28;20061;-72
2022/04/11 08:53:34;;;;;;;4.10;1.60;;;15.80;59.00;;;;;;5012002;28;20026;-72
2022/04/11 08:56:00;;;;;;;3.35;1.55;;;15.90;59.10;;;;;;5012327;28;20123;-72
2022/04/11 08:58:25;;;;;;;3.10;1.48;;;15.80;58.90;;;;;;5012059;28;20033;-72
2022/04/11 09:00:51;;;;;;;4.38;1.75;;;15.80;58.90;;;;;;5012860;28;20018;-72
2022/04/11 09:03:17;;;;;;;4.95;1.75;;;15.80;58.90;;;;;;5013201;28;20018;-72
2022/04/11 09:05:42;;;;;;;5.30;1.58;;;15.80;58.90;;;;;;5013066;28;20036;-72
2022/04/11 09:08:08;;;;;;;3.10;1.38;;;15.80;59.80;;;;;;5012092;28;20033;-72
2022/04/11 09:10:37;;;;;;;7.50;1.75;;;15.80;58.70;;;;;;5011714;28;20030;-72
2022/04/11 09:13:05;;;;;;;5.47;1.75;;;15.80;58.70;;;;;;5012009;28;20503;-72
2022/04/11 09:15:45;;;;;;;5.97;1.60;;;15.80;58.70;;;;;;5011481;28;20026;-72
2022/04/11 09:18:10;;;;;;;6.32;3.08;;;15.80;58.70;;;;;;5011697;28;20030;-72
2022/04/11 09:20:40;;;;;;;3.75;1.60;;;15.80;58.70;;;;;;5011661;28;20036;-72
2022/04/11 09:23:19;;;;;;;4.03;1.88;;;15.80;58.60;;;;;;5011664;28;20033;-72
2022/04/11 09:25:44;;;;;;;7.05;2.00;;;15.70;58.70;;;;;;5011395;28;20022;-72
2022/04/11 09:28:11;;;;;;;5.82;2.03;;;15.80;58.70;;;;;;5012877;28;20029;-72
2022/04/11 09:30:37;;;;;;;3.80;1.88;;;15.80;58.70;;;;;;5012511;28;20021;-73
2022/04/11 09:33:04;;;;;;;8.40;1.75;;;15.80;58.80;;;;;;5011327;28;20097;-72
2022/04/11 09:35:32;;;;;;;4.70;1.92;;;15.80;58.80;;;;;;5024512;28;20036;-72
2022/04/11 09:38:15;;;;;;;7.13;2.25;;;15.80;58.70;;;;;;5046072;28;20029;-72
2022/04/11 09:40:45;;;;;;;4.32;1.98;;;15.80;58.40;;;;;;5046391;28;20021;-71
2022/04/11 09:43:12;;;;;;;3.00;1.70;;;15.80;58.80;;;;;;5047138;28;20460;-73
2022/04/11 09:45:48;;;;;;;3.28;1.50;;;15.80;58.80;;;;;;5046477;28;20472;-73
2022/04/11 09:48:18;;;;;;;3.33;1.60;;;15.80;58.70;;;;;;5047069;28;20024;-72
2022/04/11 09:50:44;;;;;;;3.15;1.52;;;15.80;58.80;;;;;;5063376;28;20102;-73
2022/04/11 09:53:13;;;;;;;6.32;1.73;;;15.80;58.90;;;;;;5064137;28;20483;-72
2022/04/11 09:55:39;;;;;;;4.63;1.75;;;15.80;58.90;;;;;;5035271;28;20036;-72
2022/04/11 09:58:05;;;;;;;4.43;1.80;;;15.80;58.90;;;;;;5066742;28;20017;-71
2022/04/11 10:00:36;;;;;;;5.75;1.83;;;15.80;58.90;;;;;;5033206;28;20018;-72
2022/04/11 10:03:06;;;;;;;4.45;2.03;;;15.80;58.80;;;;;;5065618;28;20024;-72
2022/04/11 10:05:36;;;;;;;5.38;1.70;;;15.80;58.90;;;;;;5066404;28;20056;-71
2022/04/11 10:08:03;;;;;;;5.35;1.73;;;15.80;58.90;;;;;;5067556;28;20037;-72
2022/04/11 10:10:29;;;;;;;3.85;1.65;;;15.90;59.00;;;;;;5050462;28;20041;-72
2022/04/11 10:12:56;;;;;;;3.10;1.60;;;15.80;58.90;;;;;;5067428;28;20491;-72
2022/04/11 10:15:22;;;;;;;4.75;1.85;;;15.90;59.00;;;;;;5067988;28;20022;-71
2022/04/11 10:17:53;;;;;;;3.60;1.83;;;15.90;59.00;;;;;;5068060;28;20048;-72
2022/04/11 10:20:28;;;;;;;5.95;1.98;;;15.90;58.90;;;;;;5051118;28;20041;-71
2022/04/11 10:22:57;;;;;;;9.88;2.50;;;15.90;60.00;;;;;;5066802;28;20032;-71
2022/04/11 10:25:24;;;;;;;7.78;2.30;;;15.90;59.00;;;;;;5051039;28;20024;-71
2022/04/11 10:28:13;;;;;;;7.55;2.30;;;15.90;59.00;;;;;;5050911;28;20021;-72
2022/04/11 10:30:38;;;;;;;6.75;2.53;;;15.90;58.80;;;;;;5035872;28;20041;-71
2022/04/11 10:33:04;;;;;;;5.32;2.20;;;15.90;59.10;;;;;;5067823;28;20030;-71
2022/04/11 10:35:38;;;;;;;3.78;2.05;;;15.90;59.00;;;;;;5035546;28;20025;-71
2022/04/11 10:38:05;;;;;;;4.22;1.77;;;15.90;59.00;;;;;;5034564;28;20518;-72
2022/04/11 10:40:30;;;;;;;6.03;2.15;;;15.90;59.00;;;;;;5034549;28;20104;-71
2022/04/11 10:43:08;;;;;;;5.78;2.28;;;15.90;59.10;;;;;;5027993;28;20101;-70
2022/04/11 10:45:42;;;;;;;7.32;2.75;;;16.00;59.10;;;;;;5015482;28;20057;-71
2022/04/11 10:48:09;;;;;;;8.40;2.83;;;16.00;59.10;;;;;;5014628;28;20025;-72
2022/04/11 10:50:43;;;;;;;13.45;2.63;;;16.00;59.20;;;;;;5015765;28;20022;-71
2022/04/11 10:53:14;;;;;;;4.80;2.10;;;16.00;59.20;;;;;;5015507;28;20044;-71
2022/04/11 10:55:59;;;;;;;4.75;1.95;;;16.00;59.20;;;;;;5014252;28;20026;-72
2022/04/11 10:58:49;;;;;;;3.40;1.92;;;16.10;59.00;;;;;;5015327;28;20512;-72
2022/04/11 11:01:36;;;;;;;5.82;2.30;;;16.10;59.10;;;;;;5014431;28;20018;-72
2022/04/11 11:04:21;;;;;;;7.47;2.40;;;16.00;59.30;;;;;;5014222;28;20496;-71
2022/04/11 11:06:47;;;;;;;6.32;1.85;;;16.10;59.40;;;;;;5013189;28;20030;-70
2022/04/11 11:09:19;;;;;;;6.28;2.28;;;16.00;59.40;;;;;;5014068;28;20028;-71
2022/04/11 11:11:45;;;;;;;5.85;1.70;;;16.10;59.50;;;;;;5013899;28;20026;-71
2022/04/11 11:14:42;;;;;;;3.42;1.80;;;16.10;59.60;;;;;;5013994;28;20027;-71
2022/04/11 11:17:08;;;;;;;6.03;2.15;;;16.20;59.70;;;;;;5013941;28;20036;-71
2022/04/11 11:20:06;;;;;;;8.48;2.42;;;16.10;59.90;;;;;;5015265;28;20018;-71
2022/04/11 11:22:34;;;;;;;4.60;1.70;;;16.20;60.00;;;;;;5013875;28;20029;-70
2022/04/11 11:25:18;;;;;;;5.05;1.80;;;16.20;60.00;;;;;;5013700;28;20022;-74
2022/04/11 11:27:44;;;;;;;4.95;1.70;;;16.30;60.10;;;;;;5013557;28;20033;-70
2022/04/11 11:30:11;;;;;;;3.63;1.80;;;16.30;60.10;;;;;;5013835;28;20022;-71
2022/04/11 11:32:39;;;;;;;3.70;2.05;;;16.30;60.10;;;;;;5013858;28;20057;-72
2022/04/11 11:35:06;;;;;;;2.75;1.67;;;16.40;60.20;;;;;;5013528;28;20018;-73
2022/04/11 11:37:31;;;;;;;3.88;1.67;;;16.40;60.20;;;;;;5033460;28;20033;-73
2022/04/11 11:39:59;;;;;;;3.28;1.67;;;16.40;60.20;;;;;;5031758;28;20025;-73
2022/04/11 11:42:24;;;;;;;3.08;1.80;;;16.40;60.30;;;;;;5031350;28;20028;-73
2022/04/11 11:44:50;;;;;;;3.67;2.00;;;16.50;60.50;;;;;;5013502;28;20405;-73
2022/04/11 11:47:16;;;;;;;2.95;1.70;;;16.50;60.50;;;;;;5013398;28;20089;-72
2022/04/11 11:49:43;;;;;;;4.15;1.92;;;16.60;60.60;;;;;;5013423;28;20033;-73
2022/04/11 11:52:13;;;;;;;4.03;1.98;;;16.60;60.60;;;;;;5013318;28;20022;-73
2022/04/11 11:54:42;;;;;;;3.90;1.65;;;16.60;60.60;;;;;;5013414;28;20033;-73
2022/04/11 11:57:19;;;;;;;2.90;1.73;;;16.60;60.80;;;;;;5013027;28;20578;-73
2022/04/11 11:59:56;;;;;;;4.55;1.80;;;16.70;60.90;;;;;;5014493;28;20029;-73
2022/04/11 12:05:20;;;;;;;2.90;1.67;;;16.80;60.90;;;;;;5013319;28;20029;-73
2022/04/11 12:07:47;;;;;;;3.33;1.83;;;16.80;61.10;;;;;;5014096;28;20091;-72
2022/04/11 12:10:13;;;;;;;3.78;1.98;;;16.80;61.10;;;;;;5012779;28;20022;-73
2022/04/11 12:12:39;;;;;;;2.92;1.77;;;16.80;61.10;;;;;;5013066;28;20034;-73
2022/04/11 12:15:06;;;;;;;6.32;1.70;;;16.90;61.20;;;;;;5013085;28;20030;-73
2022/04/11 12:17:37;;;;;;;2.50;1.58;;;16.90;61.20;;;;;;5012458;28;20018;-73
2022/04/11 12:20:19;;;;;;;3.60;1.80;;;16.90;61.40;;;;;;5012783;28;20557;-73
2022/04/11 12:23:03;;;;;;;3.95;2.40;;;16.90;61.30;;;;;;5012746;28;20498;-73
2022/04/11 12:25:34;;;;;;;12.00;2.85;;;17.00;61.60;;;;;;5013766;28;20030;-72
2022/04/11 12:28:19;;;;;;;12.50;3.83;;;17.00;61.50;;;;;;4996493;28;20104;-71
2022/04/11 12:30:45;;;;;;;27.95;5.25;;;17.10;61.90;;;;;;5012743;28;20105;-70
2022/04/11 12:33:33;;;;;;;21.75;5.30;;;17.10;62.00;;;;;;5013712;28;20455;-71
2022/04/11 12:36:06;;;;;;;30.60;5.57;;;17.20;62.50;;;;;;5019586;28;20021;-72
2022/04/11 12:38:58;;;;;;;15.18;4.38;;;17.20;62.50;;;;;;5033118;28;20079;-73
2022/04/11 12:41:36;;;;;;;17.67;4.25;;;17.30;62.60;;;;;;5032241;28;20121;-75
2022/04/11 12:44:09;;;;;;;15.82;4.25;;;17.30;62.80;;;;;;5018498;28;20089;-75
2022/04/11 12:46:40;;;;;;;16.13;4.35;;;17.30;62.60;;;;;;5013530;28;20046;-74
2022/04/11 12:49:05;;;;;;;11.82;3.55;;;17.30;62.70;;;;;;5012056;28;20022;-72
2022/04/11 12:51:31;;;;;;;14.15;3.38;;;17.40;62.80;;;;;;5012248;28;20481;-70